Time;durP1;ratioP1;P1;durP2;ratioP2;P2;SDS_P1;SDS_P2;PMS_P1;PMS_P2;Temp;Humidity;BMP_temperature;BMP_pressure;BME280_temperature;BME280_humidity;BME280_pressure;Samples;Min_cycle;Max_cycle;Signal;HPM_P1;HPM_P2
2021/06/19 00:04:41;;;;;;;15.5;7.5;;;;;;;17.42;100;98704.25;;;;
2021/06/19 00:14:41;;;;;;;9.3;6.6;;;;;;;17.19;100;98699.72;;;;
2021/06/19 00:24:40;;;;;;;8.3;6.8;;;;;;;17.05;100;98695.48;;;;
2021/06/19 00:34:39;;;;;;;9.3;7.4;;;;;;;16.85;100;98701.92;;;;
2021/06/19 00:44:39;;;;;;;9.4;6.8;;;;;;;16.85;100;98690.23;;;;
2021/06/19 00:54:38;;;;;;;10.3;8.2;;;;;;;16.85;100;98690.23;;;;
2021/06/19 01:04:37;;;;;;;12.2;7.1;;;;;;;16.68;100;98677.7;;;;
2021/06/19 01:14:36;;;;;;;8.1;7.3;;;;;;;16.41;100;98683.87;;;;
2021/06/19 01:24:36;;;;;;;11;8.5;;;;;;;16.33;100;98692.94;;;;
2021/06/19 01:34:35;;;;;;;11.4;8;;;;;;;16.16;100;98677.67;;;;
2021/06/19 01:44:34;;;;;;;11.6;10.2;;;;;;;15.95;100;98677.8;;;;
2021/06/19 01:54:38;;;;;;;11.9;8.4;;;;;;;15.84;100;98681.3;;;;
2021/06/19 02:04:33;;;;;;;13.5;9.9;;;;;;;15.68;100;98680.39;;;;
2021/06/19 02:14:32;;;;;;;11.6;10.4;;;;;;;15.58;100;98676.2;;;;
2021/06/19 02:24:31;;;;;;;12.4;9.1;;;;;;;15.47;100;98670.38;;;;
2021/06/19 02:34:30;;;;;;;10.7;8.6;;;;;;;15.33;100;98669.89;;;;
2021/06/19 02:44:29;;;;;;;10.8;8.5;;;;;;;15.47;100;98681.23;;;;
2021/06/19 02:54:29;;;;;;;11;9.2;;;;;;;15.6;100;98691.02;;;;
2021/06/19 03:04:28;;;;;;;11.3;8.6;;;;;;;15.71;100;98683.22;;;;
2021/06/19 03:14:27;;;;;;;14;9.2;;;;;;;15.81;100;98690.92;;;;
2021/06/19 03:24:26;;;;;;;14.4;9.8;;;;;;;15.97;100;98705.42;;;;
2021/06/19 03:34:28;;;;;;;10.9;8.9;;;;;;;16.15;100;98705.98;;;;
2021/06/19 03:44:25;;;;;;;11.5;8.6;;;;;;;16.34;100;98706.21;;;;
2021/06/19 03:54:24;;;;;;;14.4;9.7;;;;;;;16.71;100;98719.76;;;;
2021/06/19 04:04:24;;;;;;;12.3;9.2;;;;;;;16.98;100;98708.89;;;;
2021/06/19 04:14:23;;;;;;;14.3;9.4;;;;;;;17.37;100;98711.9;;;;
2021/06/19 04:24:22;;;;;;;12.3;9.7;;;;;;;17.79;100;98701.34;;;;
2021/06/19 04:34:22;;;;;;;14.5;10.4;;;;;;;18.24;100;98698.13;;;;
2021/06/19 04:44:28;;;;;;;13;9.9;;;;;;;18.62;100;98700.17;;;;
2021/06/19 04:54:21;;;;;;;14.1;8.9;;;;;;;19.01;100;98694.38;;;;
2021/06/19 05:04:21;;;;;;;9.9;8.2;;;;;;;19.46;100;98690.97;;;;
2021/06/19 05:14:21;;;;;;;9.9;7.8;;;;;;;19.93;100;98693.33;;;;
2021/06/19 05:24:20;;;;;;;10.1;7.6;;;;;;;20.13;100;98705;;;;
2021/06/19 05:34:20;;;;;;;11.2;8.3;;;;;;;20.57;100;98710.75;;;;
2021/06/19 05:44:20;;;;;;;10.6;8.5;;;;;;;20.86;100;98707.21;;;;
2021/06/19 05:54:20;;;;;;;11.7;10;;;;;;;21.31;100;98713.66;;;;
2021/06/19 06:04:20;;;;;;;12;9.9;;;;;;;21.57;100;98708.05;;;;
2021/06/19 06:14:20;;;;;;;12.5;8.6;;;;;;;21.68;100;98722.66;;;;
2021/06/19 06:24:20;;;;;;;17.5;9.8;;;;;;;22.26;100;98700.82;;;;
2021/06/19 06:34:20;;;;;;;9.7;7.2;;;;;;;22.52;100;98708.06;;;;
2021/06/19 06:44:20;;;;;;;13.1;7.7;;;;;;;23.11;100;98711.52;;;;
2021/06/19 06:54:20;;;;;;;11;8.1;;;;;;;23.55;100;98720.31;;;;
2021/06/19 07:04:21;;;;;;;10.9;6.8;;;;;;;23.97;100;98714.86;;;;
2021/06/19 07:14:21;;;;;;;10.7;7.5;;;;;;;24.06;100;98723.51;;;;
2021/06/19 07:24:21;;;;;;;10.6;6.4;;;;;;;24.59;100;98713.64;;;;
2021/06/19 07:34:22;;;;;;;10.5;7;;;;;;;24.66;100;98721.89;;;;
2021/06/19 07:44:22;;;;;;;12.6;8.5;;;;;;;25.02;100;98712.37;;;;
2021/06/19 07:54:22;;;;;;;9.8;6.9;;;;;;;25.18;98.68848;98711.89;;;;
2021/06/19 08:04:23;;;;;;;9.1;6.8;;;;;;;25.63;96.56934;98707.33;;;;
2021/06/19 08:14:23;;;;;;;9.4;6.8;;;;;;;25.95;95.32715;98705.92;;;;
2021/06/19 08:24:24;;;;;;;7.1;4.6;;;;;;;26.15;93.04004;98697.84;;;;
2021/06/19 08:34:25;;;;;;;7.7;4.2;;;;;;;26.37;93.69141;98690.18;;;;
2021/06/19 08:44:25;;;;;;;6.8;3.5;;;;;;;26.43;86.65625;98680.24;;;;
2021/06/19 08:54:26;;;;;;;4.7;2.4;;;;;;;26.69;85.08105;98681.55;;;;
2021/06/19 09:04:27;;;;;;;5.8;3.3;;;;;;;27.03;84.92285;98670.5;;;;
2021/06/19 09:14:28;;;;;;;11;3.4;;;;;;;27.35;85.20703;98673.63;;;;
2021/06/19 09:24:47;;;;;;;4.3;2.3;;;;;;;27.28;83.4043;98673.72;;;;
2021/06/19 09:34:29;;;;;;;6.5;2.6;;;;;;;27.86;81.30859;98667.72;;;;
2021/06/19 09:44:34;;;;;;;4.9;2.7;;;;;;;28.21;77.61621;98658.05;;;;
2021/06/19 09:54:39;;;;;;;6.9;3.3;;;;;;;28.13;75.77051;98648.28;;;;
2021/06/19 10:04:32;;;;;;;6.1;3.3;;;;;;;28.23;78.08887;98649.29;;;;
2021/06/19 10:14:33;;;;;;;11.7;3.3;;;;;;;28.16;71.98047;98644.66;;;;
2021/06/19 10:24:34;;;;;;;4.5;3.2;;;;;;;28.6;73.12109;98635.1;;;;
2021/06/19 10:34:37;;;;;;;7.2;4;;;;;;;28.86;73.98633;98636.98;;;;
2021/06/19 10:44:51;;;;;;;6.7;4.5;;;;;;;28.72;75.75098;98628.95;;;;
2021/06/19 10:54:37;;;;;;;6.5;3.6;;;;;;;28.71;72.65527;98613.52;;;;
2021/06/19 11:04:38;;;;;;;5.7;3.7;;;;;;;28.95;74.36719;98609.43;;;;
2021/06/19 11:14:39;;;;;;;12.4;3.9;;;;;;;29.32;75.26172;98601.91;;;;
2021/06/19 11:24:40;;;;;;;6.5;3.7;;;;;;;29.25;73.25977;98586.17;;;;
2021/06/19 11:34:41;;;;;;;6.5;3.1;;;;;;;29.29;71.28613;98592.45;;;;
2021/06/19 11:44:42;;;;;;;6;2.6;;;;;;;29.68;69.63477;98574.03;;;;
2021/06/19 11:54:44;;;;;;;7;4.1;;;;;;;30;74.4541;98556.56;;;;
2021/06/19 12:04:45;;;;;;;6.4;3.5;;;;;;;29.63;72.08105;98557.91;;;;
2021/06/19 12:14:46;;;;;;;5.3;3.5;;;;;;;30.23;69.27051;98556.34;;;;
2021/06/19 12:24:47;;;;;;;5.7;3.5;;;;;;;30.07;69.64648;98550.81;;;;
2021/06/19 12:34:48;;;;;;;5.3;3.6;;;;;;;29.91;67.80371;98546.09;;;;
2021/06/19 12:44:49;;;;;;;7.2;4;;;;;;;30.51;68.59082;98543.66;;;;
2021/06/19 12:54:51;;;;;;;7;3.3;;;;;;;30.58;67.32422;98524.73;;;;
2021/06/19 13:04:52;;;;;;;6.9;4.2;;;;;;;30.55;68.51465;98522.84;;;;
2021/06/19 13:14:53;;;;;;;4.5;2.4;;;;;;;30.96;66.82129;98508.09;;;;
2021/06/19 13:24:54;;;;;;;8.2;4.2;;;;;;;30.69;67.6123;98511.28;;;;
2021/06/19 13:34:56;;;;;;;7.1;3.5;;;;;;;30.55;67.02148;98505.36;;;;
2021/06/19 13:44:58;;;;;;;5.1;3.1;;;;;;;30.74;67.71484;98510.75;;;;
2021/06/19 13:55:01;;;;;;;7.2;3.1;;;;;;;30.89;70.4375;98509.06;;;;
2021/06/19 14:05:00;;;;;;;9.9;5.1;;;;;;;31.06;65.93652;98495.86;;;;
2021/06/19 14:15:02;;;;;;;7.2;3.5;;;;;;;30.98;68.21191;98472.25;;;;
2021/06/19 14:25:03;;;;;;;8.2;3.7;;;;;;;31.31;64.58398;98472.73;;;;
2021/06/19 14:35:04;;;;;;;8.4;3.3;;;;;;;31.45;65.81445;98461.11;;;;
2021/06/19 14:45:05;;;;;;;7.1;3.1;;;;;;;31.86;63.23633;98466.45;;;;
2021/06/19 14:55:07;;;;;;;6.9;3.2;;;;;;;31.58;62.68555;98475.05;;;;
2021/06/19 15:05:08;;;;;;;5.4;2.9;;;;;;;32.32;60.18066;98464;;;;
2021/06/19 15:15:10;;;;;;;5.5;2.9;;;;;;;33.85;54.53418;98460.14;;;;
2021/06/19 15:25:12;;;;;;;9.7;3.5;;;;;;;34.99;54.26074;98452.84;;;;
2021/06/19 15:35:14;;;;;;;8.1;2.9;;;;;;;34.82;52.81348;98435.67;;;;
2021/06/19 15:45:16;;;;;;;7.5;2.9;;;;;;;36.16;50.02734;98444.09;;;;
2021/06/19 15:55:18;;;;;;;7.4;2.8;;;;;;;34.56;52.39941;98440.13;;;;
2021/06/19 16:05:21;;;;;;;5.6;2.5;;;;;;;35.13;51.64648;98440.19;;;;
2021/06/19 16:15:23;;;;;;;5.7;3.2;;;;;;;34.15;53.96973;98415.7;;;;
2021/06/19 16:25:25;;;;;;;5.6;3;;;;;;;34.12;53.9668;98414.59;;;;
2021/06/19 16:35:28;;;;;;;4.8;2.4;;;;;;;33.93;52.43359;98431.86;;;;
2021/06/19 16:45:30;;;;;;;6.9;3.3;;;;;;;34.17;52.11523;98435.58;;;;
2021/06/19 16:55:32;;;;;;;7.8;3.4;;;;;;;35.67;49.30176;98433.45;;;;
2021/06/19 17:05:34;;;;;;;4.9;2.7;;;;;;;35.07;50.36719;98453.28;;;;
2021/06/19 17:15:37;;;;;;;5.8;3.1;;;;;;;31.48;58.65527;98437.95;;;;
2021/06/19 17:25:38;;;;;;;5.6;2.8;;;;;;;29.63;63.40039;98455.91;;;;
2021/06/19 17:35:40;;;;;;;6.4;3.7;;;;;;;30.16;61.68555;98467.58;;;;
2021/06/19 17:45:41;;;;;;;5.1;3.7;;;;;;;31.26;58.47266;98465.75;;;;
2021/06/19 17:55:43;;;;;;;6.4;3.9;;;;;;;31.11;58.78516;98463.87;;;;
2021/06/19 18:05:44;;;;;;;6.2;3.3;;;;;;;29.76;62.67383;98445.63;;;;
2021/06/19 18:15:46;;;;;;;6.4;3.4;;;;;;;28.24;67.06055;98431.89;;;;
2021/06/19 18:25:47;;;;;;;6.7;4.8;;;;;;;26.96;72.5166;98423.2;;;;
2021/06/19 18:35:48;;;;;;;6.4;3.9;;;;;;;26.24;75.22266;98427.39;;;;
2021/06/19 18:45:53;;;;;;;7.3;4.5;;;;;;;25.46;78.28027;98436.56;;;;
2021/06/19 18:55:49;;;;;;;8.6;5.6;;;;;;;24.9;80.83691;98442.58;;;;
2021/06/19 19:05:49;;;;;;;7.7;3.6;;;;;;;24.6;81.86621;98443.17;;;;
2021/06/19 19:15:50;;;;;;;5.9;3.9;;;;;;;24.3;83.1709;98440.19;;;;
2021/06/19 19:25:50;;;;;;;7.9;4.9;;;;;;;24.05;84.66895;98440.3;;;;
2021/06/19 19:35:50;;;;;;;10.9;6.8;;;;;;;23.67;86.30273;98450.27;;;;
2021/06/19 19:45:50;;;;;;;8.9;5.5;;;;;;;23.31;88.95508;98441.27;;;;
2021/06/19 19:55:52;;;;;;;9.1;5.7;;;;;;;23.28;89.09863;98444.02;;;;
2021/06/19 20:05:51;;;;;;;8.9;5.4;;;;;;;23.24;89.69336;98446.77;;;;
2021/06/19 20:15:51;;;;;;;9.8;6.6;;;;;;;23.09;90.59961;98442.45;;;;
2021/06/19 20:25:51;;;;;;;7.9;5.5;;;;;;;22.83;92.5;98438.15;;;;
2021/06/19 20:35:51;;;;;;;8.2;5.6;;;;;;;22.7;94.15918;98453.42;;;;
2021/06/19 20:45:51;;;;;;;10.2;6.7;;;;;;;22.55;95.30371;98455.36;;;;
2021/06/19 20:55:51;;;;;;;9;5.2;;;;;;;22.43;96.1416;98452.17;;;;
2021/06/19 21:05:51;;;;;;;11;8;;;;;;;22.21;97.5459;98458.8;;;;
2021/06/19 21:15:51;;;;;;;12.3;9.2;;;;;;;21.95;99.10254;98471.63;;;;
2021/06/19 21:25:52;;;;;;;8.4;5.5;;;;;;;21.71;100;98460.5;;;;
2021/06/19 21:35:51;;;;;;;12;7.8;;;;;;;21.54;100;98457.28;;;;
2021/06/19 21:45:51;;;;;;;14.5;7.5;;;;;;;21.41;100;98457.98;;;;
2021/06/19 21:55:51;;;;;;;11;5.9;;;;;;;21.16;100;98468.77;;;;
2021/06/19 22:05:51;;;;;;;13.4;7.2;;;;;;;20.85;100;98470.05;;;;
2021/06/19 22:15:50;;;;;;;7.5;6.4;;;;;;;20.53;100;98474.42;;;;
2021/06/19 22:25:50;;;;;;;8.7;6;;;;;;;20.29;100;98477.68;;;;
2021/06/19 22:35:50;;;;;;;9.9;6.2;;;;;;;20.23;100;98473.67;;;;
2021/06/19 22:45:50;;;;;;;10.7;6.4;;;;;;;19.87;100;98475.97;;;;
2021/06/19 22:55:49;;;;;;;10.3;8;;;;;;;19.71;100;98471.85;;;;
2021/06/19 23:05:49;;;;;;;11.3;7;;;;;;;19.47;100;98459.42;;;;
2021/06/19 23:15:49;;;;;;;9.2;6.3;;;;;;;19.18;100;98460.11;;;;
2021/06/19 23:25:49;;;;;;;10;6.9;;;;;;;18.96;100;98446.11;;;;
2021/06/19 23:35:48;;;;;;;9.8;7.1;;;;;;;18.75;100;98445.75;;;;
2021/06/19 23:45:48;;;;;;;9.6;6.6;;;;;;;18.51;100;98443.38;;;;
2021/06/19 23:55:47;;;;;;;13.9;7.5;;;;;;;18.38;100;98439.22;;;;
